Time;durP1;ratioP1;P1;durP2;ratioP2;P2;SDS_P1;SDS_P2;PMS_P1;PMS_P2;Temp;Humidity;BMP_temperature;BMP_pressure;BME280_temperature;BME280_humidity;BME280_pressure;Samples;Min_cycle;Max_cycle;Signal;HPM_P1;HPM_P2
2024/02/14 00:00:43;;;;;;;326.23;13.80;;;;;;;;;;5013500;28;20045;-63
2024/02/14 00:03:30;;;;;;;121.95;9.45;;;;;;;;;;5016720;28;20045;-56
2024/02/14 00:06:24;;;;;;;385.70;17.95;;;;;;;;;;5014486;28;20493;-53
2024/02/14 00:09:11;;;;;;;506.45;26.45;;;;;;;;;;5014728;28;20172;-54
2024/02/14 00:12:05;;;;;;;535.40;26.40;;;;;;;;;;5014538;28;20064;-50
2024/02/14 00:14:52;;;;;;;270.40;14.30;;;;;;;;;;5018350;28;20064;-53
2024/02/14 00:17:46;;;;;;;76.05;8.18;;;;;;;;;;5014467;28;20147;-53
2024/02/14 00:20:13;;;;;;;;;;;;;;;;;;5015381;28;20049;-51
2024/02/14 00:23:07;;;;;;;43.75;6.75;;;;;;;;;;5013013;28;20010;-47
2024/02/14 00:25:55;;;;;;;35.75;6.78;;;;;;;;;;5018144;28;20056;-50
2024/02/14 00:28:48;;;;;;;45.53;8.35;;;;;;;;;;5018429;28;20136;-60
2024/02/14 00:31:35;;;;;;;39.30;7.60;;;;;;;;;;5010852;28;20057;-58
2024/02/14 00:34:29;;;;;;;31.38;6.43;;;;;;;;;;5015417;28;20053;-55
2024/02/14 00:37:17;;;;;;;25.17;5.63;;;;;;;;;;5015424;28;20088;-54
2024/02/14 00:40:11;;;;;;;34.88;6.20;;;;;;;;;;5016281;28;20100;-56
2024/02/14 00:42:57;;;;;;;37.40;7.18;;;;;;;;;;5011676;28;20041;-58
2024/02/14 00:45:51;;;;;;;40.50;8.52;;;;;;;;;;5013772;28;20057;-55
2024/02/14 00:48:38;;;;;;;49.85;7.57;;;;;;;;;;5016555;28;20061;-61
2024/02/14 00:51:33;;;;;;;67.32;9.77;;;;;;;;;;5013134;28;20053;-61
2024/02/14 00:54:26;;;;;;;43.40;8.23;;;;;;;;;;5013990;28;20065;-62
2024/02/14 00:57:26;;;;;;;39.25;8.43;;;;;;;;;;5015909;28;20049;-50
2024/02/14 01:00:20;;;;;;;69.53;9.73;;;;;;;;;;5015064;28;20057;-61
2024/02/14 01:03:16;;;;;;;62.85;9.68;;;;;;;;;;5017680;28;20140;-61
2024/02/14 01:06:01;;;;;;;60.38;8.25;;;;;;;;;;5014562;28;20057;-61
2024/02/14 01:08:55;;;;;;;85.15;11.60;;;;;;;;;;5013605;28;20057;-62
2024/02/14 01:11:50;;;;;;;80.22;10.68;;;;;;;;;;5014678;28;20085;-61
2024/02/14 01:14:43;;;;;;;52.63;7.93;;;;;;;;;;5016124;28;20049;-60
2024/02/14 01:17:30;;;;;;;74.55;11.13;;;;;;;;;;5017227;28;20136;-63
2024/02/14 01:20:24;;;;;;;107.15;14.32;;;;;;;;;;5011762;28;20153;-63
2024/02/14 01:23:12;;;;;;;89.78;13.65;;;;;;;;;;5015966;28;20212;-63
2024/02/14 01:26:05;;;;;;;106.00;15.35;;;;;;;;;;5012381;28;20054;-55
2024/02/14 01:29:00;;;;;;;121.50;14.48;;;;;;;;;;5015785;28;20456;-61
2024/02/14 01:31:54;;;;;;;156.80;17.13;;;;;;;;;;5015311;28;20053;-63
2024/02/14 01:34:47;;;;;;;151.27;15.35;;;;;;;;;;5014583;28;20064;-61
2024/02/14 01:37:34;;;;;;;102.82;12.23;;;;;;;;;;5014105;28;20087;-61
2024/02/14 01:40:28;;;;;;;131.30;14.95;;;;;;;;;;5016853;28;20061;-62
2024/02/14 01:43:15;;;;;;;122.85;14.10;;;;;;;;;;5012493;28;20412;-61
2024/02/14 01:46:09;;;;;;;172.00;19.17;;;;;;;;;;5014310;28;20045;-62
2024/02/14 01:48:56;;;;;;;183.13;19.60;;;;;;;;;;5010275;28;20050;-62
2024/02/14 01:51:50;;;;;;;192.95;19.27;;;;;;;;;;5014464;28;20115;-62
2024/02/14 01:54:38;;;;;;;252.07;23.02;;;;;;;;;;5011684;28;20054;-61
2024/02/14 01:57:46;;;;;;;209.45;20.80;;;;;;;;;;5010460;28;20501;-67
2024/02/14 02:00:47;;;;;;;146.55;20.58;;;;;;;;;;5014191;28;20050;-67
2024/02/14 02:03:41;;;;;;;152.88;20.65;;;;;;;;;;5014546;28;20058;-66
2024/02/14 02:06:28;;;;;;;148.65;18.52;;;;;;;;;;5014207;28;20049;-67
2024/02/14 02:09:23;;;;;;;178.30;23.52;;;;;;;;;;5014583;28;20740;-67
2024/02/14 02:12:09;;;;;;;186.98;25.20;;;;;;;;;;5001915;28;20504;-62
2024/02/14 02:15:03;;;;;;;181.35;24.40;;;;;;;;;;5013693;28;20788;-56
2024/02/14 02:17:53;;;;;;;192.23;26.02;;;;;;;;;;5009431;28;20140;-61
2024/02/14 02:20:44;;;;;;;152.85;21.55;;;;;;;;;;5011252;28;20555;-61
2024/02/14 02:23:31;;;;;;;215.45;26.02;;;;;;;;;;5012099;28;20440;-61
2024/02/14 02:26:25;;;;;;;120.60;19.55;;;;;;;;;;5007149;28;20049;-60
2024/02/14 02:29:12;;;;;;;145.38;22.08;;;;;;;;;;5012273;28;20481;-61
2024/02/14 02:32:06;;;;;;;151.13;21.23;;;;;;;;;;5014651;28;20420;-51
2024/02/14 02:34:53;;;;;;;114.20;19.80;;;;;;;;;;5012278;28;20056;-50
2024/02/14 02:37:50;;;;;;;107.93;17.30;;;;;;;;;;5013953;28;20049;-49
2024/02/14 02:40:38;;;;;;;107.47;16.30;;;;;;;;;;5013756;28;20069;-62
2024/02/14 02:43:32;;;;;;;96.03;19.13;;;;;;;;;;5012558;28;20110;-62
2024/02/14 02:46:19;;;;;;;131.73;22.27;;;;;;;;;;5013314;28;20400;-64
2024/02/14 02:49:13;;;;;;;86.38;16.30;;;;;;;;;;5014303;28;20085;-65
2024/02/14 02:52:00;;;;;;;103.03;17.63;;;;;;;;;;5018169;28;20064;-63
2024/02/14 02:54:54;;;;;;;88.97;16.60;;;;;;;;;;5015668;28;20061;-64
2024/02/14 02:57:48;;;;;;;99.30;17.58;;;;;;;;;;5015117;28;20605;-64
2024/02/14 03:00:42;;;;;;;77.28;15.90;;;;;;;;;;5016199;28;20781;-62
2024/02/14 03:03:32;;;;;;;96.53;17.02;;;;;;;;;;5015599;28;20053;-63
2024/02/14 03:06:23;;;;;;;89.05;15.27;;;;;;;;;;5017114;28;20168;-63
2024/02/14 03:09:12;;;;;;;112.18;18.10;;;;;;;;;;5015434;28;20064;-60
2024/02/14 03:12:04;;;;;;;104.72;17.05;;;;;;;;;;5016467;28;20086;-57
2024/02/14 03:14:52;;;;;;;101.35;18.10;;;;;;;;;;5013767;28;20049;-58
2024/02/14 03:17:45;;;;;;;80.70;14.65;;;;;;;;;;5014516;28;20468;-62
2024/02/14 03:20:34;;;;;;;92.10;14.90;;;;;;;;;;5015760;28;20484;-60
2024/02/14 03:23:27;;;;;;;50.60;11.73;;;;;;;;;;5018256;28;20200;-62
2024/02/14 03:26:14;;;;;;;58.72;10.60;;;;;;;;;;5014223;28;20049;-59
2024/02/14 03:29:08;;;;;;;61.30;11.05;;;;;;;;;;5013135;28;21055;-64
2024/02/14 03:31:58;;;;;;;70.72;11.90;;;;;;;;;;5013863;28;20049;-64
2024/02/14 03:34:49;;;;;;;86.88;13.98;;;;;;;;;;5013729;28;20057;-64
2024/02/14 03:37:37;;;;;;;67.05;12.43;;;;;;;;;;5011789;28;20770;-61
2024/02/14 03:40:30;;;;;;;61.45;10.45;;;;;;;;;;5011996;28;20139;-64
2024/02/14 03:43:17;;;;;;;82.85;12.57;;;;;;;;;;4997698;28;20100;-55
2024/02/14 03:46:12;;;;;;;53.95;10.57;;;;;;;;;;5011604;28;20057;-55
2024/02/14 03:48:58;;;;;;;65.05;11.38;;;;;;;;;;5012865;28;20061;-56
2024/02/14 03:51:56;;;;;;;80.65;12.35;;;;;;;;;;5012582;28;20053;-56
2024/02/14 03:54:43;;;;;;;81.68;12.65;;;;;;;;;;5009344;28;20041;-54
2024/02/14 03:57:45;;;;;;;74.30;13.38;;;;;;;;;;5009909;28;21179;-54
2024/02/14 04:00:31;;;;;;;67.63;12.68;;;;;;;;;;5014107;28;20064;-64
2024/02/14 04:03:24;;;;;;;84.00;11.85;;;;;;;;;;5012664;28;20056;-63
2024/02/14 04:06:13;;;;;;;81.90;11.07;;;;;;;;;;5014295;28;20116;-64
2024/02/14 04:09:06;;;;;;;54.10;10.30;;;;;;;;;;5014319;28;20076;-64
2024/02/14 04:11:52;;;;;;;60.55;12.45;;;;;;;;;;5009955;28;20053;-64
2024/02/14 04:14:46;;;;;;;89.10;13.00;;;;;;;;;;5012248;28;20049;-61
2024/02/14 04:17:34;;;;;;;74.93;11.63;;;;;;;;;;5010109;28;20058;-60
2024/02/14 04:20:32;;;;;;;57.13;9.55;;;;;;;;;;5012122;28;20521;-60
2024/02/14 04:23:20;;;;;;;65.97;10.82;;;;;;;;;;5008645;28;20055;-58
2024/02/14 04:26:20;;;;;;;60.55;10.50;;;;;;;;;;5009734;28;22127;-67
2024/02/14 04:29:09;;;;;;;58.97;9.65;;;;;;;;;;5013351;28;20053;-56
2024/02/14 04:32:03;;;;;;;65.18;10.93;;;;;;;;;;5014639;28;20059;-56
2024/02/14 04:34:50;;;;;;;43.58;9.02;;;;;;;;;;5011701;28;20079;-58
2024/02/14 04:37:46;;;;;;;38.17;7.25;;;;;;;;;;5013523;28;20050;-58
2024/02/14 04:40:31;;;;;;;56.78;9.52;;;;;;;;;;5012944;28;20055;-56
2024/02/14 04:43:26;;;;;;;55.22;9.55;;;;;;;;;;5012990;28;20316;-50
2024/02/14 04:46:13;;;;;;;57.25;10.32;;;;;;;;;;5009996;28;20061;-56
2024/02/14 04:49:07;;;;;;;68.30;10.95;;;;;;;;;;5012350;28;20814;-52
2024/02/14 04:51:55;;;;;;;73.35;9.88;;;;;;;;;;5010771;28;20049;-54
2024/02/14 04:54:48;;;;;;;83.05;10.30;;;;;;;;;;5009950;28;20235;-53
2024/02/14 04:57:43;;;;;;;63.65;9.73;;;;;;;;;;5011929;28;20053;-63
2024/02/14 05:00:36;;;;;;;51.63;7.95;;;;;;;;;;5009866;28;20053;-63
2024/02/14 05:03:24;;;;;;;55.90;8.60;;;;;;;;;;5013411;28;20057;-64
2024/02/14 05:06:17;;;;;;;50.05;8.82;;;;;;;;;;5012918;28;20107;-63
2024/02/14 05:09:11;;;;;;;50.15;8.70;;;;;;;;;;5019234;28;20111;-63
2024/02/14 05:11:58;;;;;;;43.85;7.60;;;;;;;;;;5011791;28;20421;-63
2024/02/14 05:14:52;;;;;;;57.83;9.30;;;;;;;;;;5019451;28;20243;-58
2024/02/14 05:17:46;;;;;;;67.35;8.48;;;;;;;;;;5013418;28;20403;-61
2024/02/14 05:20:41;;;;;;;84.63;10.65;;;;;;;;;;5010323;28;20072;-59
2024/02/14 05:23:35;;;;;;;163.57;14.73;;;;;;;;;;5014339;28;20084;-62
2024/02/14 05:26:22;;;;;;;295.17;20.02;;;;;;;;;;5013430;28;20072;-57
2024/02/14 05:29:18;;;;;;;131.20;12.32;;;;;;;;;;5008844;28;20049;-61
2024/02/14 05:32:04;;;;;;;63.08;9.48;;;;;;;;;;5012318;28;20135;-63
2024/02/14 05:34:58;;;;;;;65.70;9.02;;;;;;;;;;5013537;28;20052;-54
2024/02/14 05:37:49;;;;;;;69.32;10.15;;;;;;;;;;5017317;28;21065;-49
2024/02/14 05:40:39;;;;;;;76.40;11.02;;;;;;;;;;5010681;28;20103;-52
2024/02/14 05:43:32;;;;;;;69.88;11.05;;;;;;;;;;5013205;28;20533;-48
2024/02/14 05:46:27;;;;;;;77.03;11.32;;;;;;;;;;5012733;28;20066;-52
2024/02/14 05:49:14;;;;;;;95.00;10.75;;;;;;;;;;5010179;28;20119;-63
2024/02/14 05:52:08;;;;;;;87.65;12.63;;;;;;;;;;5010745;28;20061;-54
2024/02/14 05:54:55;;;;;;;85.35;13.05;;;;;;;;;;5011852;28;20042;-49
2024/02/14 05:57:57;;;;;;;84.10;13.43;;;;;;;;;;5009556;28;20054;-54
2024/02/14 06:00:43;;;;;;;78.57;12.85;;;;;;;;;;5014387;28;20049;-52
2024/02/14 06:03:37;;;;;;;104.97;15.50;;;;;;;;;;5016045;28;20057;-52
2024/02/14 06:06:24;;;;;;;77.68;12.07;;;;;;;;;;5016897;28;20087;-62
2024/02/14 06:09:18;;;;;;;80.32;13.57;;;;;;;;;;5013740;28;20226;-56
2024/02/14 06:12:05;;;;;;;100.00;13.55;;;;;;;;;;5015395;28;20061;-61
2024/02/14 06:14:59;;;;;;;95.28;14.93;;;;;;;;;;5012674;28;20119;-61
2024/02/14 06:17:47;;;;;;;79.82;10.65;;;;;;;;;;5013694;28;20463;-62
2024/02/14 06:20:40;;;;;;;102.30;14.40;;;;;;;;;;5013205;28;20124;-60
2024/02/14 06:23:27;;;;;;;70.10;12.95;;;;;;;;;;5018885;28;20077;-59
2024/02/14 06:26:21;;;;;;;76.90;12.02;;;;;;;;;;5017826;28;20349;-56
2024/02/14 06:29:08;;;;;;;74.05;11.43;;;;;;;;;;5015589;28;20049;-61
2024/02/14 06:32:03;;;;;;;79.55;12.25;;;;;;;;;;5016420;28;20069;-61
2024/02/14 06:34:56;;;;;;;62.60;10.45;;;;;;;;;;5019271;28;20054;-62
2024/02/14 06:37:50;;;;;;;100.22;14.50;;;;;;;;;;5019370;28;20084;-62
2024/02/14 06:40:38;;;;;;;59.70;12.05;;;;;;;;;;5014015;28;20062;-62
2024/02/14 06:43:31;;;;;;;61.28;10.55;;;;;;;;;;5018204;28;20054;-60
2024/02/14 06:46:19;;;;;;;75.78;13.27;;;;;;;;;;5016917;28;20061;-63
2024/02/14 06:49:12;;;;;;;62.47;12.02;;;;;;;;;;5015428;28;20423;-63
2024/02/14 06:52:00;;;;;;;56.40;9.68;;;;;;;;;;5011687;28;20666;-63
2024/02/14 06:54:53;;;;;;;75.85;12.85;;;;;;;;;;5017569;28;20124;-63
2024/02/14 06:57:47;;;;;;;92.70;13.63;;;;;;;;;;5013248;28;20311;-63
2024/02/14 07:00:47;;;;;;;51.95;8.73;;;;;;;;;;5017192;28;20042;-63
2024/02/14 07:03:34;;;;;;;55.72;9.82;;;;;;;;;;5012525;28;20042;-62
2024/02/14 07:06:28;;;;;;;46.38;9.48;;;;;;;;;;5015571;28;20504;-62
2024/02/14 07:09:16;;;;;;;50.55;8.45;;;;;;;;;;5019900;28;20057;-61
2024/02/14 07:12:10;;;;;;;80.32;13.05;;;;;;;;;;5015155;28;20102;-63
2024/02/14 07:14:57;;;;;;;70.15;11.07;;;;;;;;;;5018850;28;20136;-62
2024/02/14 07:17:51;;;;;;;43.03;9.10;;;;;;;;;;5016148;28;20097;-62
2024/02/14 07:20:39;;;;;;;71.25;12.05;;;;;;;;;;5013981;28;20053;-63
2024/02/14 07:23:33;;;;;;;65.82;12.02;;;;;;;;;;5017092;28;20049;-55
2024/02/14 07:26:20;;;;;;;57.95;11.45;;;;;;;;;;5019370;28;20148;-53
2024/02/14 07:29:13;;;;;;;81.53;13.05;;;;;;;;;;5015501;28;20057;-57
2024/02/14 07:32:02;;;;;;;61.67;11.27;;;;;;;;;;5019056;28;20058;-56
2024/02/14 07:34:56;;;;;;;51.67;11.90;;;;;;;;;;5018994;28;20058;-54
2024/02/14 07:37:44;;;;;;;43.88;10.00;;;;;;;;;;5017657;28;20520;-51
2024/02/14 07:40:39;;;;;;;53.03;9.40;;;;;;;;;;5017288;28;20049;-63
2024/02/14 07:43:31;;;;;;;43.13;8.90;;;;;;;;;;5013580;28;20592;-63
2024/02/14 07:46:19;;;;;;;48.15;10.35;;;;;;;;;;5014369;28;20059;-64
2024/02/14 07:49:13;;;;;;;26.80;8.43;;;;;;;;;;5018091;28;20053;-63
2024/02/14 07:52:01;;;;;;;52.53;9.63;;;;;;;;;;5013632;28;20049;-63
2024/02/14 07:54:54;;;;;;;46.25;11.07;;;;;;;;;;5017637;28;20041;-63
2024/02/14 07:57:48;;;;;;;72.85;16.25;;;;;;;;;;5010879;28;20053;-67
2024/02/14 08:00:48;;;;;;;57.97;14.68;;;;;;;;;;5016858;28;20112;-62
2024/02/14 08:03:35;;;;;;;67.15;26.70;;;;;;;;;;5015872;28;20057;-62
2024/02/14 08:06:29;;;;;;;41.70;15.07;;;;;;;;;;5016839;28;20485;-62
2024/02/14 08:09:23;;;;;;;96.80;40.45;;;;;;;;;;5017215;28;20053;-62
2024/02/14 08:12:11;;;;;;;104.00;38.58;;;;;;;;;;5012949;28;20075;-63
2024/02/14 08:15:06;;;;;;;47.40;13.52;;;;;;;;;;5017333;28;20123;-67
2024/02/14 08:17:55;;;;;;;27.65;12.65;;;;;;;;;;5015684;28;20125;-52
2024/02/14 08:20:45;;;;;;;37.28;10.85;;;;;;;;;;5014593;28;20055;-59
2024/02/14 08:23:34;;;;;;;30.17;11.23;;;;;;;;;;5014363;28;20052;-58
2024/02/14 08:26:28;;;;;;;26.35;8.05;;;;;;;;;;5010273;28;20045;-55
2024/02/14 08:29:15;;;;;;;41.60;10.38;;;;;;;;;;5013314;28;20513;-54
2024/02/14 08:32:12;;;;;;;51.00;12.60;;;;;;;;;;5013294;28;20045;-56
2024/02/14 08:35:01;;;;;;;39.92;10.02;;;;;;;;;;5014177;28;20042;-56
2024/02/14 08:37:55;;;;;;;41.03;10.73;;;;;;;;;;5005053;28;20717;-65
2024/02/14 08:40:42;;;;;;;37.10;10.25;;;;;;;;;;5015969;28;20050;-63
2024/02/14 08:43:35;;;;;;;26.77;8.23;;;;;;;;;;5010818;28;20115;-64
2024/02/14 08:46:23;;;;;;;24.25;8.15;;;;;;;;;;5013396;28;20140;-63
2024/02/14 08:49:16;;;;;;;28.55;8.90;;;;;;;;;;5015744;28;20487;-63
2024/02/14 08:52:04;;;;;;;28.73;8.60;;;;;;;;;;5017342;28;20056;-62
2024/02/14 08:54:58;;;;;;;24.38;7.93;;;;;;;;;;5013928;28;20509;-63
2024/02/14 08:57:52;;;;;;;20.33;7.63;;;;;;;;;;5014129;28;20062;-63
2024/02/14 09:00:45;;;;;;;32.63;10.10;;;;;;;;;;5015251;28;20503;-63
2024/02/14 09:03:43;;;;;;;24.23;9.23;;;;;;;;;;5014671;28;20053;-63
2024/02/14 09:06:37;;;;;;;32.38;10.13;;;;;;;;;;5011908;28;20045;-63
2024/02/14 09:09:23;;;;;;;22.00;8.03;;;;;;;;;;5012256;28;20057;-63
2024/02/14 09:12:17;;;;;;;40.85;12.27;;;;;;;;;;5010335;28;20304;-63
2024/02/14 09:15:05;;;;;;;28.05;10.40;;;;;;;;;;5015146;28;20058;-63
2024/02/14 09:18:00;;;;;;;17.25;7.45;;;;;;;;;;5016549;28;20072;-64
2024/02/14 09:20:47;;;;;;;25.52;10.07;;;;;;;;;;5012802;28;20058;-63
2024/02/14 09:23:45;;;;;;;27.75;10.32;;;;;;;;;;5012219;28;20585;-63
2024/02/14 09:26:32;;;;;;;22.73;9.20;;;;;;;;;;5014494;28;20073;-63
2024/02/14 09:29:27;;;;;;;30.17;9.95;;;;;;;;;;5015400;28;20046;-55
2024/02/14 09:32:20;;;;;;;25.63;8.40;;;;;;;;;;5011966;28;20050;-61
2024/02/14 09:35:08;;;;;;;23.52;8.02;;;;;;;;;;5012348;28;20127;-61
2024/02/14 09:38:02;;;;;;;28.48;9.00;;;;;;;;;;5018527;28;20478;-61
2024/02/14 09:40:56;;;;;;;18.25;7.90;;;;;;;;;;5016055;28;20115;-61
2024/02/14 09:43:57;;;;;;;21.83;7.93;;;;;;;;;;5014260;28;20061;-61
2024/02/14 09:46:45;;;;;;;18.98;9.00;;;;;;;;;;5009967;28;20432;-61
2024/02/14 09:49:40;;;;;;;16.83;6.82;;;;;;;;;;5017241;28;20535;-53
2024/02/14 09:52:27;;;;;;;11.38;5.90;;;;;;;;;;5010497;28;20081;-56
2024/02/14 09:55:23;;;;;;;11.77;5.97;;;;;;;;;;5017980;28;20115;-52
2024/02/14 09:58:18;;;;;;;19.10;8.52;;;;;;;;;;5016329;28;20150;-62
2024/02/14 10:01:11;;;;;;;14.13;6.18;;;;;;;;;;5018697;28;20057;-56
2024/02/14 10:04:05;;;;;;;12.68;4.97;;;;;;;;;;5017377;28;20053;-56
2024/02/14 10:06:53;;;;;;;14.00;4.60;;;;;;;;;;5021989;28;20153;-61
2024/02/14 10:09:46;;;;;;;13.27;4.90;;;;;;;;;;5021103;28;20444;-60
2024/02/14 10:12:41;;;;;;;11.55;5.20;;;;;;;;;;5016404;28;20058;-61
2024/02/14 10:15:34;;;;;;;11.05;4.97;;;;;;;;;;5020854;28;20091;-61
2024/02/14 10:18:22;;;;;;;8.27;4.18;;;;;;;;;;5018603;28;20509;-61
2024/02/14 10:21:19;;;;;;;14.88;4.40;;;;;;;;;;5020661;28;20049;-62
2024/02/14 10:24:14;;;;;;;14.85;4.55;;;;;;;;;;5019864;28;20468;-51
2024/02/14 10:27:00;;;;;;;8.68;3.40;;;;;;;;;;5020238;28;20518;-60
2024/02/14 10:29:57;;;;;;;9.25;3.78;;;;;;;;;;5019623;28;20057;-60
2024/02/14 10:32:50;;;;;;;8.25;3.60;;;;;;;;;;5013429;28;20056;-60
2024/02/14 10:35:54;;;;;;;7.15;3.50;;;;;;;;;;5021375;28;20045;-60
2024/02/14 10:38:42;;;;;;;7.38;3.53;;;;;;;;;;5021565;28;20053;-59
2024/02/14 10:41:35;;;;;;;6.25;3.55;;;;;;;;;;5016924;28;20173;-60
2024/02/14 10:44:23;;;;;;;8.30;3.95;;;;;;;;;;5019815;28;20057;-60
2024/02/14 10:47:20;;;;;;;10.52;3.67;;;;;;;;;;5018746;28;20064;-57
2024/02/14 10:50:14;;;;;;;8.13;3.42;;;;;;;;;;5019726;28;20060;-57
2024/02/14 10:53:11;;;;;;;9.90;3.65;;;;;;;;;;5005007;28;20061;-57
2024/02/14 10:55:58;;;;;;;9.45;3.08;;;;;;;;;;5014513;28;21691;-56
2024/02/14 10:59:01;;;;;;;10.77;3.53;;;;;;;;;;5013965;28;20054;-55
2024/02/14 11:01:49;;;;;;;7.38;3.63;;;;;;;;;;5017728;28;20053;-60
2024/02/14 11:04:42;;;;;;;9.00;3.55;;;;;;;;;;5012457;28;20505;-59
2024/02/14 11:07:30;;;;;;;6.03;3.30;;;;;;;;;;5013696;28;20050;-59
2024/02/14 11:10:23;;;;;;;7.82;3.70;;;;;;;;;;5015681;28;20058;-60
2024/02/14 11:13:16;;;;;;;9.68;3.33;;;;;;;;;;5010067;28;20547;-59
2024/02/14 11:16:09;;;;;;;8.88;3.28;;;;;;;;;;5018067;28;20612;-59
2024/02/14 11:19:08;;;;;;;7.75;3.15;;;;;;;;;;5019722;28;20049;-49
2024/02/14 11:22:10;;;;;;;7.95;2.95;;;;;;;;;;5015187;28;21254;-60
2024/02/14 11:24:57;;;;;;;6.85;3.17;;;;;;;;;;5018641;28;20060;-58
2024/02/14 11:27:51;;;;;;;6.80;3.00;;;;;;;;;;5009846;28;20525;-59
2024/02/14 11:30:45;;;;;;;8.50;3.38;;;;;;;;;;5018854;28;20385;-58
2024/02/14 11:33:39;;;;;;;8.85;3.47;;;;;;;;;;5018871;28;20358;-60
2024/02/14 11:36:33;;;;;;;8.48;3.45;;;;;;;;;;5019228;28;20097;-59
2024/02/14 11:39:23;;;;;;;6.43;2.80;;;;;;;;;;5013672;28;20057;-56
2024/02/14 11:42:18;;;;;;;7.88;3.30;;;;;;;;;;5016091;28;20061;-58
2024/02/14 11:45:05;;;;;;;7.18;3.00;;;;;;;;;;5017523;28;20061;-56
2024/02/14 11:47:58;;;;;;;7.50;2.80;;;;;;;;;;5017010;28;20174;-56
2024/02/14 11:50:46;;;;;;;7.05;3.13;;;;;;;;;;5017103;28;20112;-54
2024/02/14 11:53:40;;;;;;;8.30;3.00;;;;;;;;;;5019579;28;20442;-58
2024/02/14 11:56:28;;;;;;;6.22;2.67;;;;;;;;;;5017617;28;20539;-65
2024/02/14 11:59:27;;;;;;;6.22;2.88;;;;;;;;;;5015245;28;20045;-61
2024/02/14 12:02:21;;;;;;;7.82;2.72;;;;;;;;;;5016876;28;20064;-61
2024/02/14 12:05:16;;;;;;;8.55;2.60;;;;;;;;;;5008612;28;20057;-61
2024/02/14 12:08:10;;;;;;;7.10;2.95;;;;;;;;;;5016280;28;20135;-61
2024/02/14 12:11:04;;;;;;;6.75;2.55;;;;;;;;;;5015826;28;20066;-62
2024/02/14 12:13:57;;;;;;;8.68;2.53;;;;;;;;;;5017976;28;20058;-54
2024/02/14 12:16:45;;;;;;;3.42;2.40;;;;;;;;;;5016779;28;20544;-59
2024/02/14 12:19:40;;;;;;;6.03;3.05;;;;;;;;;;5013394;28;20202;-61
2024/02/14 12:22:32;;;;;;;7.40;2.92;;;;;;;;;;5015773;28;20128;-61
2024/02/14 12:25:26;;;;;;;6.35;2.42;;;;;;;;;;5015687;28;20057;-61
2024/02/14 12:28:20;;;;;;;6.78;2.67;;;;;;;;;;5016754;28;20598;-62
2024/02/14 12:31:22;;;;;;;4.75;2.40;;;;;;;;;;5005262;28;20108;-61
2024/02/14 12:34:15;;;;;;;7.10;2.60;;;;;;;;;;5013854;28;20068;-56
2024/02/14 12:37:03;;;;;;;3.55;2.40;;;;;;;;;;5016942;28;20132;-54
2024/02/14 12:39:56;;;;;;;3.85;2.13;;;;;;;;;;5016894;28;20298;-56
2024/02/14 12:42:43;;;;;;;2.92;1.77;;;;;;;;;;5014663;28;20057;-52
2024/02/14 12:45:38;;;;;;;3.95;1.95;;;;;;;;;;5017299;28;20590;-60
2024/02/14 12:48:26;;;;;;;10.18;2.17;;;;;;;;;;5015808;28;20072;-55
2024/02/14 12:51:18;;;;;;;3.63;2.03;;;;;;;;;;5012032;28;20751;-61
2024/02/14 12:54:09;;;;;;;8.50;2.20;;;;;;;;;;5015367;28;20061;-65
2024/02/14 12:56:59;;;;;;;5.13;1.90;;;;;;;;;;5016411;28;20064;-64
2024/02/14 12:59:53;;;;;;;2.58;1.77;;;;;;;;;;5010633;28;20149;-64
2024/02/14 13:02:48;;;;;;;4.43;2.22;;;;;;;;;;5009945;28;20056;-65
2024/02/14 13:05:36;;;;;;;4.43;1.95;;;;;;;;;;5011961;28;20420;-65
2024/02/14 13:08:29;;;;;;;2.60;1.90;;;;;;;;;;5013817;28;20057;-65
2024/02/14 13:11:18;;;;;;;4.78;2.20;;;;;;;;;;5017268;28;20081;-61
2024/02/14 13:14:10;;;;;;;4.68;1.88;;;;;;;;;;5015635;28;20179;-58
2024/02/14 13:17:04;;;;;;;3.53;1.92;;;;;;;;;;5016660;28;20054;-58
2024/02/14 13:19:53;;;;;;;6.10;1.73;;;;;;;;;;5012391;28;20136;-59
2024/02/14 13:22:46;;;;;;;2.90;2.13;;;;;;;;;;5015444;28;20072;-57
2024/02/14 13:25:33;;;;;;;7.20;2.20;;;;;;;;;;5014161;28;20053;-56
2024/02/14 13:28:26;;;;;;;6.82;2.63;;;;;;;;;;5017362;28;20057;-58
2024/02/14 13:31:14;;;;;;;5.90;2.35;;;;;;;;;;5018381;28;20041;-62
2024/02/14 13:34:08;;;;;;;7.80;2.53;;;;;;;;;;5009757;28;20073;-62
2024/02/14 13:36:56;;;;;;;4.53;2.45;;;;;;;;;;5016762;28;20049;-62
2024/02/14 13:39:48;;;;;;;7.40;2.50;;;;;;;;;;5013683;28;20456;-62
2024/02/14 13:42:39;;;;;;;3.67;2.30;;;;;;;;;;5012333;28;20141;-62
2024/02/14 13:45:47;;;;;;;3.80;2.53;;;;;;;;;;5018222;28;20501;-62
2024/02/14 13:48:34;;;;;;;5.38;2.55;;;;;;;;;;5013046;28;20057;-61
2024/02/14 13:51:28;;;;;;;4.43;2.20;;;;;;;;;;5016041;28;20869;-47
2024/02/14 13:54:25;;;;;;;4.10;2.60;;;;;;;;;;5013521;28;20061;-49
2024/02/14 13:57:18;;;;;;;3.70;2.33;;;;;;;;;;5016363;28;20053;-47
2024/02/14 14:00:12;;;;;;;4.97;2.70;;;;;;;;;;5013571;28;20054;-51
2024/02/14 14:03:06;;;;;;;3.88;2.53;;;;;;;;;;5016505;28;20076;-48
2024/02/14 14:05:54;;;;;;;4.45;2.88;;;;;;;;;;5006780;28;20815;-65
2024/02/14 14:08:47;;;;;;;5.43;2.22;;;;;;;;;;5009445;28;20136;-47
2024/02/14 14:11:35;;;;;;;5.63;2.38;;;;;;;;;;5012199;28;21439;-47
2024/02/14 14:14:30;;;;;;;3.92;2.30;;;;;;;;;;5012486;28;20093;-49
2024/02/14 14:17:16;;;;;;;6.55;2.53;;;;;;;;;;5011622;28;20193;-48
2024/02/14 14:20:10;;;;;;;5.28;2.50;;;;;;;;;;5011342;28;20054;-53
2024/02/14 14:22:57;;;;;;;4.03;2.60;;;;;;;;;;5013555;28;20092;-63
2024/02/14 14:25:51;;;;;;;3.65;2.40;;;;;;;;;;5011029;28;20111;-56
2024/02/14 14:28:39;;;;;;;3.45;2.55;;;;;;;;;;5011251;28;20291;-57
2024/02/14 14:31:35;;;;;;;4.28;2.42;;;;;;;;;;5012148;28;20056;-57
2024/02/14 14:34:20;;;;;;;2.55;2.15;;;;;;;;;;5010175;28;20053;-58
2024/02/14 14:37:13;;;;;;;6.57;2.70;;;;;;;;;;5013859;28;20053;-60
2024/02/14 14:40:04;;;;;;;4.55;2.38;;;;;;;;;;5012947;28;20471;-58
2024/02/14 14:42:54;;;;;;;5.30;2.70;;;;;;;;;;5016223;28;20069;-49
2024/02/14 14:45:41;;;;;;;4.60;2.80;;;;;;;;;;5014848;28;20061;-55
2024/02/14 14:48:35;;;;;;;3.60;2.70;;;;;;;;;;5019262;28;20095;-55
2024/02/14 14:51:23;;;;;;;5.45;3.05;;;;;;;;;;5019180;28;20045;-56
2024/02/14 14:54:17;;;;;;;5.80;2.85;;;;;;;;;;5014817;28;20077;-53
2024/02/14 14:57:09;;;;;;;4.47;3.17;;;;;;;;;;5013879;28;20202;-54
2024/02/14 15:00:04;;;;;;;5.38;3.72;;;;;;;;;;5014820;28;20461;-61
2024/02/14 15:02:51;;;;;;;4.72;3.72;;;;;;;;;;5017082;28;20054;-47
2024/02/14 15:05:47;;;;;;;5.63;3.45;;;;;;;;;;5014818;28;20075;-48
2024/02/14 15:08:33;;;;;;;4.63;3.30;;;;;;;;;;5007754;28;20084;-46
2024/02/14 15:11:26;;;;;;;4.78;3.08;;;;;;;;;;5017647;28;20057;-47
2024/02/14 15:14:14;;;;;;;4.22;2.90;;;;;;;;;;5015344;28;20053;-46
2024/02/14 15:17:07;;;;;;;2.97;2.30;;;;;;;;;;5014905;28;20064;-46
2024/02/14 15:19:55;;;;;;;3.38;2.53;;;;;;;;;;5003157;28;20052;-61
2024/02/14 15:22:48;;;;;;;5.05;2.95;;;;;;;;;;5018395;28;20057;-47
2024/02/14 15:25:42;;;;;;;4.55;3.10;;;;;;;;;;5009603;28;20371;-52
2024/02/14 15:28:21;;;;;;;5.50;3.42;;;;;;;;;;4999913;28;20144;-48
2024/02/14 15:33:50;;;;;;;4.97;4.10;;;;;;;;;;5013456;28;20046;-49
2024/02/14 15:36:44;;;;;;;5.57;3.30;;;;;;;;;;5017152;28;20080;-64
2024/02/14 15:39:32;;;;;;;5.38;4.03;;;;;;;;;;5012225;28;20058;-62
2024/02/14 15:42:26;;;;;;;5.50;3.17;;;;;;;;;;5014912;28;20115;-63
2024/02/14 15:45:16;;;;;;;4.70;3.10;;;;;;;;;;5007618;28;20127;-62
2024/02/14 15:48:07;;;;;;;5.60;3.33;;;;;;;;;;5015995;28;20064;-62
2024/02/14 15:51:00;;;;;;;3.38;2.70;;;;;;;;;;5011710;28;20340;-62
2024/02/14 15:53:54;;;;;;;3.45;2.60;;;;;;;;;;5008414;28;20064;-62
2024/02/14 17:15:52;;;;;;;5.00;3.22;;;;;;;;;;4986063;28;20699;-63
2024/02/14 17:18:33;;;;;;;6.45;3.42;;;;;;;;;;4990394;28;20058;-64
2024/02/14 17:21:01;;;;;;;5.03;3.33;;;;;;;;;;4995653;28;20046;-64
2024/02/14 17:23:34;;;;;;;7.13;4.35;;;;;;;;;;4995928;28;20599;-64
2024/02/14 17:26:03;;;;;;;6.50;4.05;;;;;;;;;;4997034;28;20317;-59
2024/02/14 17:28:31;;;;;;;8.30;3.90;;;;;;;;;;4992982;28;20427;-62
2024/02/14 17:31:24;;;;;;;4.70;3.75;;;;;;;;;;4990372;28;20054;-57
2024/02/14 17:34:12;;;;;;;5.68;3.60;;;;;;;;;;4985876;28;20050;-56
2024/02/14 17:37:05;;;;;;;9.02;3.90;;;;;;;;;;4993395;28;20521;-57
2024/02/14 17:39:53;;;;;;;8.18;3.72;;;;;;;;;;4994389;28;20054;-57
2024/02/14 17:42:46;;;;;;;6.03;3.85;;;;;;;;;;4991737;28;20054;-58
2024/02/14 17:45:35;;;;;;;6.30;3.85;;;;;;;;;;4993780;28;20100;-48
2024/02/14 17:48:27;;;;;;;6.75;4.35;;;;;;;;;;4993104;28;20708;-56
2024/02/14 17:51:15;;;;;;;5.57;3.92;;;;;;;;;;4993536;28;20069;-58
2024/02/14 17:54:09;;;;;;;7.38;4.05;;;;;;;;;;4986320;28;20049;-59
2024/02/14 17:57:03;;;;;;;7.53;4.90;;;;;;;;;;4994243;28;20088;-56
2024/02/14 17:59:54;;;;;;;8.50;4.20;;;;;;;;;;4993795;28;20054;-57
2024/02/14 18:02:47;;;;;;;7.20;4.80;;;;;;;;;;4993516;28;20124;-51
2024/02/14 18:05:43;;;;;;;8.25;4.78;;;;;;;;;;4990522;28;20097;-63
2024/02/14 18:08:29;;;;;;;5.85;4.30;;;;;;;;;;4990294;28;20085;-63
2024/02/14 18:11:22;;;;;;;9.05;4.97;;;;;;;;;;4991746;28;20050;-64